Map

Track Data

SID SEASON NUMBER BASIN SUBBASIN NAME ISO_TIME NATURE LAT LON WMO_WIND WMO_PRES WMO_AGENCY TRACK_TYPE DIST2LAND LANDFALL IFLAG USA_AGENCY USA_ATCF_ID USA_LAT USA_LON USA_RECORD USA_STATUS USA_WIND USA_PRES USA_SSHS USA_R34_NE USA_R34_SE USA_R34_SW USA_R34_NW USA_R50_NE USA_R50_SE USA_R50_SW USA_R50_NW USA_R64_NE USA_R64_SE USA_R64_SW USA_R64_NW USA_POCI USA_ROCI USA_RMW USA_EYE TOKYO_LAT TOKYO_LON TOKYO_GRADE TOKYO_WIND TOKYO_PRES TOKYO_R50_DIR TOKYO_R50_LONG TOKYO_R50_SHORT TOKYO_R30_DIR TOKYO_R30_LONG TOKYO_R30_SHORT TOKYO_LAND CMA_LAT CMA_LON CMA_CAT CMA_WIND CMA_PRES HKO_LAT HKO_LON HKO_CAT HKO_WIND HKO_PRES NEWDELHI_LAT NEWDELHI_LON NEWDELHI_GRADE NEWDELHI_WIND NEWDELHI_PRES NEWDELHI_CI NEWDELHI_DP NEWDELHI_POCI REUNION_LAT REUNION_LON REUNION_TYPE REUNION_WIND REUNION_PRES REUNION_TNUM REUNION_CI REUNION_RMW REUNION_R34_NE REUNION_R34_SE REUNION_R34_SW REUNION_R34_NW REUNION_R50_NE REUNION_R50_SE REUNION_R50_SW REUNION_R50_NW REUNION_R64_NE REUNION_R64_SE REUNION_R64_SW REUNION_R64_NW BOM_LAT BOM_LON BOM_TYPE BOM_WIND BOM_PRES BOM_TNUM BOM_CI BOM_RMW BOM_R34_NE BOM_R34_SE BOM_R34_SW BOM_R34_NW BOM_R50_NE BOM_R50_SE BOM_R50_SW BOM_R50_NW BOM_R64_NE BOM_R64_SE BOM_R64_SW BOM_R64_NW BOM_ROCI BOM_POCI BOM_EYE BOM_POS_METHOD BOM_PRES_METHOD NADI_LAT NADI_LON NADI_CAT NADI_WIND NADI_PRES WELLINGTON_LAT WELLINGTON_LON WELLINGTON_WIND WELLINGTON_PRES DS824_LAT DS824_LON DS824_STAGE DS824_WIND DS824_PRES TD9636_LAT TD9636_LON TD9636_STAGE TD9636_WIND TD9636_PRES TD9635_LAT TD9635_LON TD9635_WIND TD9635_PRES TD9635_ROCI NEUMANN_LAT NEUMANN_LON NEUMANN_CLASS NEUMANN_WIND NEUMANN_PRES MLC_LAT MLC_LON MLC_CLASS MLC_WIND MLC_PRES USA_GUST BOM_GUST BOM_GUST_PER REUNION_GUST REUNION_GUST_PER USA_SEAHGT USA_SEARAD_NE USA_SEARAD_SE USA_SEARAD_SW USA_SEARAD_NW STORM_SPEED STORM_DIR
1992262N34301 1992 90 NA NA BONNIE 1992-09-17 18:00:00 TS 33.8000 -59.0000 30 1009 hurdat_atl main 1209 1209 O_____________ hurdat_atl AL051992 33.8000 -59.0000 TD 30 1009 -1 8 121
1992262N34301 1992 90 NA NA BONNIE 1992-09-17 21:00:00 TS 33.6028 -58.6144 main 1244 1244 P_____________ AL051992 33.6028 -58.6144 TD 30 1008 -1 7 117
1992262N34301 1992 90 NA NA BONNIE 1992-09-18 00:00:00 TS 33.5000 -58.3000 30 1008 hurdat_atl main 1267 1267 O_____________ hurdat_atl AL051992 33.5000 -58.3000 TD 30 1008 -1 4 96
1992262N34301 1992 90 NA NA BONNIE 1992-09-18 03:00:00 TS 33.5549 -58.1053 main 1265 1259 P_____________ AL051992 33.5549 -58.1053 TD 32 1006 -1 3 52
1992262N34301 1992 90 NA NA BONNIE 1992-09-18 06:00:00 TS 33.7000 -58.0000 35 1005 hurdat_atl main 1259 1250 O_____________ hurdat_atl AL051992 33.7000 -58.0000 TS 35 1005 0 3 29
1992262N34301 1992 90 NA NA BONNIE 1992-09-18 09:00:00 TS 33.8425 -57.9126 main 1254 1234 P_____________ AL051992 33.8425 -57.9126 TS 40 1002 0 3 14
1992262N34301 1992 90 NA NA BONNIE 1992-09-18 12:00:00 TS 34.0000 -57.9000 45 1000 hurdat_atl main 1234 1210 O_____________ hurdat_atl AL051992 34.0000 -57.9000 TS 45 1000 0 3 345
1992262N34301 1992 90 NA NA BONNIE 1992-09-18 15:00:00 TS 34.1800 -58.0148 main 1210 1196 P_____________ AL051992 34.1800 -58.0148 TS 55 994 0 3 332
1992262N34301 1992 90 NA NA BONNIE 1992-09-18 18:00:00 TS 34.3000 -58.1000 65 988 hurdat_atl main 1196 1196 O_____________ hurdat_atl AL051992 34.3000 -58.1000 HU 65 988 1 1 12
1992262N34301 1992 90 NA NA BONNIE 1992-09-18 21:00:00 TS 34.2575 -57.9948 main 1201 1201 P_____________ AL051992 34.2575 -57.9948 HU 70 984 1 3 112
1992262N34301 1992 90 NA NA BONNIE 1992-09-19 00:00:00 TS 34.2000 -57.8000 75 980 hurdat_atl main 1219 1219 O_____________ hurdat_atl AL051992 34.2000 -57.8000 HU 75 980 1 3 88
1992262N34301 1992 90 NA NA BONNIE 1992-09-19 03:00:00 TS 34.2700 -57.6001 main 1219 1214 P_____________ AL051992 34.2700 -57.6001 HU 77 978 1 4 59
1992262N34301 1992 90 NA NA BONNIE 1992-09-19 06:00:00 TS 34.4000 -57.4000 80 976 hurdat_atl main 1219 1214 O_____________ hurdat_atl AL051992 34.4000 -57.4000 HU 80 976 1 4 49
1992262N34301 1992 90 NA NA BONNIE 1992-09-19 09:00:00 TS 34.5275 -57.2424 main 1219 1205 P_____________ AL051992 34.5275 -57.2424 HU 82 974 1 4 39
1992262N34301 1992 90 NA NA BONNIE 1992-09-19 12:00:00 TS 34.7000 -57.1000 85 973 hurdat_atl main 1205 1192 O_____________ hurdat_atl AL051992 34.7000 -57.1000 HU 85 973 2 5 31
1992262N34301 1992 90 NA NA BONNIE 1992-09-19 15:00:00 TS 34.9425 -56.9426 main 1197 1170 P_____________ AL051992 34.9425 -56.9426 HU 87 971 2 6 26
1992262N34301 1992 90 NA NA BONNIE 1992-09-19 18:00:00 TS 35.2000 -56.8000 90 970 hurdat_atl main 1170 1151 O_____________ hurdat_atl AL051992 35.2000 -56.8000 HU 90 970 2 5 23
1992262N34301 1992 90 NA NA BONNIE 1992-09-19 21:00:00 TS 35.3999 -56.7072 main 1151 1133 P_____________ AL051992 35.3999 -56.7072 HU 90 970 2 4 22
1992262N34301 1992 90 NA NA BONNIE 1992-09-20 00:00:00 TS 35.6000 -56.6000 90 970 hurdat_atl main 1133 1115 O_____________ hurdat_atl AL051992 35.6000 -56.6000 HU 90 970 2 5 29
1992262N34301 1992 90 NA NA BONNIE 1992-09-20 03:00:00 TS 35.8501 -56.4002 main 1107 1092 P_____________ AL051992 35.8501 -56.4002 HU 87 971 2 6 33
1992262N34301 1992 90 NA NA BONNIE 1992-09-20 06:00:00 TS 36.1000 -56.2000 85 973 hurdat_atl main 1092 1075 O_____________ hurdat_atl AL051992 36.1000 -56.2000 HU 85 973 2 5 27
1992262N34301 1992 90 NA NA BONNIE 1992-09-20 09:00:00 TS 36.3149 -56.1072 main 1075 1057 P_____________ AL051992 36.3149 -56.1072 HU 85 973 2 4 22
1992262N34301 1992 90 NA NA BONNIE 1992-09-20 12:00:00 TS 36.5000 -56.0000 85 974 hurdat_atl main 1057 1044 O_____________ hurdat_atl AL051992 36.5000 -56.0000 HU 85 974 2 4 35
1992262N34301 1992 90 NA NA BONNIE 1992-09-20 15:00:00 TS 36.6648 -55.8024 main 1044 1041 P_____________ AL051992 36.6648 -55.8024 HU 85 973 2 5 53
1992262N34301 1992 90 NA NA BONNIE 1992-09-20 18:00:00 TS 36.8000 -55.5000 85 973 hurdat_atl main 1044 1042 O_____________ hurdat_atl AL051992 36.8000 -55.5000 HU 85 973 2 6 67
1992262N34301 1992 90 NA NA BONNIE 1992-09-20 21:00:00 TS 36.9077 -55.0724 main 1050 1050 P_____________ AL051992 36.9077 -55.0724 HU 87 972 2 7 74
1992262N34301 1992 90 NA NA BONNIE 1992-09-21 00:00:00 TS 37.0000 -54.6000 90 972 hurdat_atl main 1060 1057 O_____________ hurdat_atl AL051992 37.0000 -54.6000 HU 90 972 2 7 74
1992262N34301 1992 90 NA NA BONNIE 1992-09-21 03:00:00 TS 37.1073 -54.1925 main 1057 1045 P_____________ AL051992 37.1073 -54.1925 HU 90 971 2 7 73
1992262N34301 1992 90 NA NA BONNIE 1992-09-21 06:00:00 TS 37.2000 -53.8000 90 970 hurdat_atl main 1045 1045 O_____________ hurdat_atl AL051992 37.2000 -53.8000 HU 90 970 2 7 77
1992262N34301 1992 90 NA NA BONNIE 1992-09-21 09:00:00 TS 37.2499 -53.3922 main 1045 1034 P_____________ AL051992 37.2499 -53.3922 HU 90 969 2 6 81
1992262N34301 1992 90 NA NA BONNIE 1992-09-21 12:00:00 TS 37.3000 -53.0000 90 968 hurdat_atl main 1034 1023 O_____________ hurdat_atl AL051992 37.3000 -53.0000 HU 90 968 2 6 76
1992262N34301 1992 90 NA NA BONNIE 1992-09-21 15:00:00 TS 37.3923 -52.6500 main 1024 1013 P_____________ AL051992 37.3923 -52.6500 HU 92 966 2 6 70
1992262N34301 1992 90 NA NA BONNIE 1992-09-21 18:00:00 TS 37.5000 -52.3000 95 965 hurdat_atl main 1014 1005 O_____________ hurdat_atl AL051992 37.5000 -52.3000 HU 95 965 2 7 70
1992262N34301 1992 90 NA NA BONNIE 1992-09-21 21:00:00 TS 37.6152 -51.8702 main 1006 997 P_____________ AL051992 37.6152 -51.8702 HU 95 965 2 7 73
1992262N34301 1992 90 NA NA BONNIE 1992-09-22 00:00:00 TS 37.7000 -51.5000 95 966 hurdat_atl main 999 999 O_____________ hurdat_atl AL051992 37.7000 -51.5000 HU 95 966 2 5 78
1992262N34301 1992 90 NA NA BONNIE 1992-09-22 03:00:00 TS 37.7073 -51.3048 main 1002 1002 P_____________ AL051992 37.7073 -51.3048 HU 95 966 2 2 90
1992262N34301 1992 90 NA NA BONNIE 1992-09-22 06:00:00 TS 37.7000 -51.2000 95 967 hurdat_atl main 1003 1003 O_____________ hurdat_atl AL051992 37.7000 -51.2000 HU 95 967 2 2 76
1992262N34301 1992 90 NA NA BONNIE 1992-09-22 09:00:00 TS 37.7500 -51.0850 main 1004 993 P_____________ AL051992 37.7500 -51.0850 HU 92 967 2 2 57
1992262N34301 1992 90 NA NA BONNIE 1992-09-22 12:00:00 TS 37.8000 -51.0000 90 968 hurdat_atl main 995 995 O_____________ hurdat_atl AL051992 37.8000 -51.0000 HU 90 968 2 1 59
1992262N34301 1992 90 NA NA BONNIE 1992-09-22 15:00:00 TS 37.8150 -50.9500 main 996 995 P_____________ AL051992 37.8150 -50.9500 HU 90 968 2 1 90
1992262N34301 1992 90 NA NA BONNIE 1992-09-22 18:00:00 TS 37.8000 -50.9000 90 969 hurdat_atl main 996 996 O_____________ hurdat_atl AL051992 37.8000 -50.9000 HU 90 969 2 1 115
1992262N34301 1992 90 NA NA BONNIE 1992-09-22 21:00:00 TS 37.7575 -50.7924 main 998 998 P_____________ AL051992 37.7575 -50.7924 HU 90 969 2 2 123
1992262N34301 1992 90 NA NA BONNIE 1992-09-23 00:00:00 TS 37.7000 -50.7000 90 970 hurdat_atl main 1010 1010 O_____________ hurdat_atl AL051992 37.7000 -50.7000 HU 90 970 2 1 144
1992262N34301 1992 90 NA NA BONNIE 1992-09-23 03:00:00 TS 37.6425 -50.6775 main 1021 1021 P_____________ AL051992 37.6425 -50.6775 HU 87 971 2 1 0
1992262N34301 1992 90 NA NA BONNIE 1992-09-23 06:00:00 TS 37.6000 -50.7000 85 972 hurdat_atl main 1021 1021 O_____________ hurdat_atl AL051992 37.6000 -50.7000 HU 85 972 2 1 221
1992262N34301 1992 90 NA NA BONNIE 1992-09-23 09:00:00 TS 37.6000 -50.7350 main 1021 1020 P_____________ AL051992 37.6000 -50.7350 HU 85 973 2 1 270
1992262N34301 1992 90 NA NA BONNIE 1992-09-23 12:00:00 TS 37.6000 -50.8000 85 974 hurdat_atl main 1020 1018 O_____________ hurdat_atl AL051992 37.6000 -50.8000 HU 85 974 2 1 249
1992262N34301 1992 90 NA NA BONNIE 1992-09-23 15:00:00 TS 37.5500 -50.9001 main 1018 1018 P_____________ AL051992 37.5500 -50.9001 HU 82 975 1 2 237
1992262N34301 1992 90 NA NA BONNIE 1992-09-23 18:00:00 TS 37.5000 -51.0000 80 977 hurdat_atl main 1028 1026 O_____________ hurdat_atl AL051992 37.5000 -51.0000 HU 80 977 1 1 245
1992262N34301 1992 90 NA NA BONNIE 1992-09-23 21:00:00 TS 37.4925 -51.0575 main 1026 1026 P_____________ AL051992 37.4925 -51.0575 HU 77 978 1 1 270
1992262N34301 1992 90 NA NA BONNIE 1992-09-24 00:00:00 TS 37.5000 -51.1000 75 979 hurdat_atl main 1026 1026 O_____________ hurdat_atl AL051992 37.5000 -51.1000 HU 75 979 1 1 283
1992262N34301 1992 90 NA NA BONNIE 1992-09-24 03:00:00 TS 37.5075 -51.1425 main 1026 1025 P_____________ AL051992 37.5075 -51.1425 HU 72 981 1 1 270
1992262N34301 1992 90 NA NA BONNIE 1992-09-24 06:00:00 TS 37.5000 -51.2000 70 983 hurdat_atl main 1025 1024 O_____________ hurdat_atl AL051992 37.5000 -51.2000 HU 70 983 1 1 251
1992262N34301 1992 90 NA NA BONNIE 1992-09-24 09:00:00 TS 37.4650 -51.3000 main 1024 1024 P_____________ AL051992 37.4650 -51.3000 HU 67 985 1 2 237
1992262N34301 1992 90 NA NA BONNIE 1992-09-24 12:00:00 TS 37.4000 -51.4000 65 987 hurdat_atl main 1033 1033 O_____________ hurdat_atl AL051992 37.4000 -51.4000 HU 65 987 1 2 218
1992262N34301 1992 90 NA NA BONNIE 1992-09-24 15:00:00 TS 37.3225 -51.4424 main 1044 1043 P_____________ AL051992 37.3225 -51.4424 HU 62 991 0 2 203
1992262N34301 1992 90 NA NA BONNIE 1992-09-24 18:00:00 TS 37.2000 -51.5000 60 995 hurdat_atl main 1054 1054 O_____________ hurdat_atl AL051992 37.2000 -51.5000 TS 60 995 0 3 210
1992262N34301 1992 90 NA NA BONNIE 1992-09-24 21:00:00 TS 37.0226 -51.6578 main 1074 1074 P_____________ AL051992 37.0226 -51.6578 TS 57 995 0 5 211
1992262N34301 1992 90 NA NA BONNIE 1992-09-25 00:00:00 TS 36.8000 -51.8000 55 995 hurdat_atl main 1096 1096 O_____________ hurdat_atl AL051992 36.8000 -51.8000 TS 55 995 0 5 196
1992262N34301 1992 90 NA NA BONNIE 1992-09-25 03:00:00 TS 36.5650 -51.8223 main 1118 1118 P_____________ AL051992 36.5650 -51.8223 TS 50 997 0 5 178
1992262N34301 1992 90 NA NA BONNIE 1992-09-25 06:00:00 TS 36.3000 -51.8000 45 1000 hurdat_atl main 1151 1151 O_____________ hurdat_atl AL051992 36.3000 -51.8000 TS 45 1000 0 6 177
1992262N34301 1992 90 NA NA BONNIE 1992-09-25 09:00:00 TS 36.0075 -51.8000 main 1184 1184 P_____________ AL051992 36.0075 -51.8000 TS 42 1002 0 6 179
1992262N34301 1992 90 NA NA BONNIE 1992-09-25 12:00:00 TS 35.7000 -51.8000 40 1005 hurdat_atl main 1218 1218 O_____________ hurdat_atl AL051992 35.7000 -51.8000 TS 40 1005 0 6 182
1992262N34301 1992 90 NA NA BONNIE 1992-09-25 15:00:00 TS 35.3925 -51.8076 main 1251 1251 P_____________ AL051992 35.3925 -51.8076 TS 37 1006 0 6 180
1992262N34301 1992 90 NA NA BONNIE 1992-09-25 18:00:00 TS 35.1000 -51.8000 35 1007 hurdat_atl main 1284 1284 O_____________ hurdat_atl AL051992 35.1000 -51.8000 TS 35 1007 0 6 0
1992262N34301 1992 90 NA NA BONNIE 1992-09-25 21:00:00 TS 34.8424 -51.7802 main 1318 1318 P_____________ AL051992 34.8424 -51.7802 TS 32 1008 -1 5 171
1992262N34301 1992 90 NA NA BONNIE 1992-09-26 00:00:00 TS 34.6000 -51.7000 30 1009 hurdat_atl main 1341 1341 O_____________ hurdat_atl AL051992 34.6000 -51.7000 TD 30 1009 -1 5 158
1992262N34301 1992 90 NA NA BONNIE 1992-09-26 03:00:00 TS 34.3350 -51.5299 main 1376 1376 P_____________ AL051992 34.3350 -51.5299 TD 30 1009 -1 6 146
1992262N34301 1992 90 NA NA BONNIE 1992-09-26 06:00:00 TS 34.1000 -51.3000 30 1009 hurdat_atl main 1400 1400 O_____________ hurdat_atl AL051992 34.1000 -51.3000 TD 30 1009 -1 5 136
1992262N34301 1992 90 NA NA BONNIE 1992-09-26 09:00:00 TS 33.9497 -51.0880 main 1424 1424 P_____________ AL051992 33.9497 -51.0880 TD 30 1008 -1 5 126
1992262N34301 1992 90 NA NA BONNIE 1992-09-26 12:00:00 TS 33.8000 -50.8000 30 1008 hurdat_atl main 1438 1438 O_____________ hurdat_atl AL051992 33.8000 -50.8000 TD 30 1008 -1 7 127
1992262N34301 1992 90 NA NA BONNIE 1992-09-26 15:00:00 TS 33.5345 -50.4245 main 1476 1476 P_____________ AL051992 33.5345 -50.4245 TD 32 1007 -1 9 124
1992262N34301 1992 90 NA NA BONNIE 1992-09-26 18:00:00 TS 33.3000 -49.9000 35 1006 hurdat_atl main 1506 1506 O_____________ hurdat_atl AL051992 33.3000 -49.9000 TS 35 1006 0 11 107
1992262N34301 1992 90 NA NA BONNIE 1992-09-26 21:00:00 TS 33.2202 -49.1955 main 1529 1529 P_____________ AL051992 33.2202 -49.1955 TS 35 1005 0 13 95
1992262N34301 1992 90 NA NA BONNIE 1992-09-27 00:00:00 TS 33.2000 -48.4000 35 1005 hurdat_atl main 1545 1545 O_____________ hurdat_atl AL051992 33.2000 -48.4000 TS 35 1005 0 13 93
1992262N34301 1992 90 NA NA BONNIE 1992-09-27 03:00:00 TS 33.1496 -47.6501 main 1572 1572 P_____________ AL051992 33.1496 -47.6501 TS 37 1004 0 13 95
1992262N34301 1992 90 NA NA BONNIE 1992-09-27 06:00:00 TS 33.1000 -46.9000 40 1003 hurdat_atl main 1593 1593 O_____________ hurdat_atl AL051992 33.1000 -46.9000 TS 40 1003 0 13 95
1992262N34301 1992 90 NA NA BONNIE 1992-09-27 09:00:00 TS 33.0422 -46.1424 main 1628 1628 P_____________ AL051992 33.0422 -46.1424 TS 40 1002 0 13 95
1992262N34301 1992 90 NA NA BONNIE 1992-09-27 12:00:00 TS 33.0000 -45.4000 40 1001 hurdat_atl main 1650 1650 O_____________ hurdat_atl AL051992 33.0000 -45.4000 TS 40 1001 0 12 93
1992262N34301 1992 90 NA NA BONNIE 1992-09-27 15:00:00 TS 32.9849 -44.6626 main 1675 1675 P_____________ AL051992 32.9849 -44.6626 TS 42 1000 0 12 90
1992262N34301 1992 90 NA NA BONNIE 1992-09-27 18:00:00 TS 33.0000 -44.0000 45 999 hurdat_atl main 1701 1701 O_____________ hurdat_atl AL051992 33.0000 -44.0000 TS 45 999 0 10 88
1992262N34301 1992 90 NA NA BONNIE 1992-09-27 21:00:00 TS 33.0269 -43.4698 main 1721 1719 P_____________ AL051992 33.0269 -43.4698 TS 47 997 0 8 83
1992262N34301 1992 90 NA NA BONNIE 1992-09-28 00:00:00 TS 33.1000 -43.0000 50 996 hurdat_atl main 1731 1730 O_____________ hurdat_atl AL051992 33.1000 -43.0000 TS 50 996 0 8 77
1992262N34301 1992 90 NA NA BONNIE 1992-09-28 03:00:00 TS 33.2198 -42.4998 main 1743 1737 P_____________ AL051992 33.2198 -42.4998 TS 52 995 0 9 70
1992262N34301 1992 90 NA NA BONNIE 1992-09-28 06:00:00 TS 33.4000 -42.0000 55 994 hurdat_atl main 1746 1740 O_____________ hurdat_atl AL051992 33.4000 -42.0000 TS 55 994 0 9 64
1992262N34301 1992 90 NA NA BONNIE 1992-09-28 09:00:00 TS 33.6271 -41.5147 main 1750 1740 P_____________ AL051992 33.6271 -41.5147 TS 57 993 0 10 59
1992262N34301 1992 90 NA NA BONNIE 1992-09-28 12:00:00 TS 33.9000 -41.0000 60 993 hurdat_atl main 1745 1741 O_____________ hurdat_atl AL051992 33.9000 -41.0000 TS 60 993 0 11 58
1992262N34301 1992 90 NA NA BONNIE 1992-09-28 15:00:00 TS 34.1998 -40.4225 main 1747 1743 P_____________ AL051992 34.1998 -40.4225 TS 60 992 0 12 59
1992262N34301 1992 90 NA NA BONNIE 1992-09-28 18:00:00 TS 34.5000 -39.8000 60 992 hurdat_atl main 1751 1748 O_____________ hurdat_atl AL051992 34.5000 -39.8000 TS 60 992 0 12 61
1992262N34301 1992 90 NA NA BONNIE 1992-09-28 21:00:00 TS 34.7802 -39.1277 main 1763 1763 P_____________ AL051992 34.7802 -39.1277 TS 60 992 0 12 65
1992262N34301 1992 90 NA NA BONNIE 1992-09-29 00:00:00 TS 35.0000 -38.5000 60 992 hurdat_atl main 1779 1779 O_____________ hurdat_atl AL051992 35.0000 -38.5000 TS 60 992 0 10 70
1992262N34301 1992 90 NA NA BONNIE 1992-09-29 03:00:00 TS 35.1144 -38.0266 main 1799 1799 P_____________ AL051992 35.1144 -38.0266 TS 60 992 0 8 75
1992262N34301 1992 90 NA NA BONNIE 1992-09-29 06:00:00 TS 35.2000 -37.6000 60 993 hurdat_atl main 1814 1814 O_____________ hurdat_atl AL051992 35.2000 -37.6000 TS 60 993 0 7 74
1992262N34301 1992 90 NA NA BONNIE 1992-09-29 09:00:00 TS 35.3189 -37.1664 main 1830 1828 P_____________ AL051992 35.3189 -37.1664 TS 57 993 0 9 70
1992262N34301 1992 90 NA NA BONNIE 1992-09-29 12:00:00 TS 35.5000 -36.6000 55 994 hurdat_atl main 1850 1848 O_____________ hurdat_atl AL051992 35.5000 -36.6000 TS 55 994 0 12 67
1992262N34301 1992 90 NA NA BONNIE 1992-09-29 15:00:00 TS 35.7837 -35.8274 main 1876 1876 P_____________ AL051992 35.7837 -35.8274 TS 55 994 0 16 68
1992262N34301 1992 90 NA NA BONNIE 1992-09-29 18:00:00 TS 36.1000 -34.8000 55 995 hurdat_atl main 1897 1807 O_____________ hurdat_atl AL051992 36.1000 -34.8000 TS 55 995 0 19 73
1992262N34301 1992 90 NA NA BONNIE 1992-09-29 21:00:00 TS 36.3430 -33.5161 main 1799 1710 P_____________ AL051992 36.3430 -33.5161 TS 55 995 0 22 77
1992262N34301 1992 90 NA NA BONNIE 1992-09-30 00:00:00 TS 36.6000 -32.1000 55 995 hurdat_atl main 1702 1619 O_____________ hurdat_atl AL051992 36.6000 -32.1000 TS 55 995 0 23 76
1992262N34301 1992 90 NA NA BONNIE 1992-09-30 03:00:00 TS 36.9027 -30.7699 main 1619 1550 P_____________ AL051992 36.9027 -30.7699 TS 55 995 0 23 72
1992262N34301 1992 90 NA NA BONNIE 1992-09-30 06:00:00 TS 37.3000 -29.4000 55 995 hurdat_atl main 1543 1483 O_____________ hurdat_atl AL051992 37.3000 -29.4000 TS 55 995 0 25 68
1992262N34301 1992 90 NA NA BONNIE 1992-09-30 09:00:00 TS 37.8585 -27.8658 main 1484 1436 P_____________ AL051992 37.8585 -27.8658 TS 52 996 0 26 65
1992262N34301 1992 90 NA NA BONNIE 1992-09-30 12:00:00 TS 38.4000 -26.4000 50 997 hurdat_atl main 1433 1354 O_____________ hurdat_atl AL051992 38.4000 -26.4000 TS 50 997 0 23 66
1992262N34301 1992 90 NA NA BONNIE 1992-09-30 15:00:00 TS 38.7809 -25.1787 main 1354 1267 P_____________ AL051992 38.7809 -25.1787 TS 45 999 0 18 71
1992262N34301 1992 90 NA NA BONNIE 1992-09-30 18:00:00 TS 39.0000 -24.2000 40 1002 hurdat_atl main 1267 1207 O_____________ hurdat_atl AL051992 39.0000 -24.2000 TS 40 1002 0 14 79
1992262N34301 1992 90 NA NA BONNIE 1992-09-30 21:00:00 TS 39.0435 -23.4232 main 1198 1146 P_____________ AL051992 39.0435 -23.4232 TS 40 1003 0 11 90
1992262N34301 1992 90 NA NA BONNIE 1992-10-01 00:00:00 ET 39.0000 -22.8000 40 1004 hurdat_atl main 1146 1095 O_____________ hurdat_atl AL051992 39.0000 -22.8000 EX 40 1004 -4 10 90
1992262N34301 1992 90 NA NA BONNIE 1992-10-01 03:00:00 ET 39.0376 -22.1255 main 1086 1043 P_____________ AL051992 39.0376 -22.1255 EX 37 1005 -4 9 90
1992262N34301 1992 90 NA NA BONNIE 1992-10-01 06:00:00 ET 39.0000 -21.6000 35 1006 hurdat_atl main 1043 1018 O_____________ hurdat_atl AL051992 39.0000 -21.6000 EX 35 1006 -4 7 112
1992262N34301 1992 90 NA NA BONNIE 1992-10-01 09:00:00 ET 38.7720 -21.2870 main 1018 1011 P_____________ AL051992 38.7720 -21.2870 EX 32 1007 -4 6 148
1992262N34301 1992 90 NA NA BONNIE 1992-10-01 12:00:00 ET 38.5000 -21.2000 30 1008 hurdat_atl main 1013 1013 O_____________ hurdat_atl AL051992 38.5000 -21.2000 EX 30 1008 -4 5 183
1992262N34301 1992 90 NA NA BONNIE 1992-10-01 15:00:00 ET 38.3200 -21.2979 main 1024 1024 P_____________ AL051992 38.3200 -21.2979 EX 27 1009 -4 4 218
1992262N34301 1992 90 NA NA BONNIE 1992-10-01 18:00:00 ET 38.2000 -21.5000 25 1010 hurdat_atl main 1042 1042 O_____________ hurdat_atl AL051992 38.2000 -21.5000 EX 25 1010 -4 3 237
1992262N34301 1992 90 NA NA BONNIE 1992-10-01 21:00:00 ET 38.1424 -21.6423 main 1052 1052 P_____________ AL051992 38.1424 -21.6423 EX 25 1011 -4 3 247
1992262N34301 1992 90 NA NA BONNIE 1992-10-02 00:00:00 ET 38.1000 -21.8000 25 1012 hurdat_atl main 1070 1070 O_____________ hurdat_atl AL051992 38.1000 -21.8000 EX 25 1012 -4 3 242
1992262N34301 1992 90 NA NA BONNIE 1992-10-02 03:00:00 ET 38.0000 -21.9851 main 1089 1089 P_____________ AL051992 38.0000 -21.9851 EX 25 1013 -4 4 238
1992262N34301 1992 90 NA NA BONNIE 1992-10-02 06:00:00 ET 37.9000 -22.2000 25 1014 hurdat_atl main 1108 1108 O_____________ hurdat_atl AL051992 37.9000 -22.2000 EX 25 1014 -4 4 240
1992262N34301 1992 90 NA NA BONNIE 1992-10-02 09:00:00 ET 37.8194 -22.3828 main 1127 1127 P_____________ AL051992 37.8194 -22.3828 EX 22 1014 -4 4 256
1992262N34301 1992 90 NA NA BONNIE 1992-10-02 12:00:00 ET 37.8000 -22.7000 20 1015 hurdat_atl main 1153 1153 O_____________ hurdat_atl AL051992 37.8000 -22.7000 EX 20 1015 -4 7 274
1992262N34301 1992 90 NA NA BONNIE 1992-10-02 15:00:00 ET 37.8739 -23.2716 main 1203 1203 P_____________ AL051992 37.8739 -23.2716 EX 20 1016 -4 10 281
1992262N34301 1992 90 NA NA BONNIE 1992-10-02 18:00:00 ET 38.0000 -24.0000 20 1017 hurdat_atl main 1261 O_____________ hurdat_atl AL051992 38.0000 -24.0000 EX 20 1017 -4 12 282

About IBTrACS Database

This database is a web-friendly format of International Best Track Archive for Climate Stewardship (IBTrACS), a global best track data archive curated by NOAA dating back to 1842.

Updated: 2021-12-08